Time;durP1;ratioP1;P1;durP2;ratioP2;P2;SDS_P1;SDS_P2;PMS_P1;PMS_P2;Temp;Humidity;BMP_temperature;BMP_pressure;BME280_temperature;BME280_humidity;BME280_pressure;Samples;Min_cycle;Max_cycle;Signal;HPM_P1;HPM_P2
2022/05/31 00:01:46;;;;;;;2.17;1.75;;;12.00;93.10;;;11.74;100.00;100147.69;5013105;28;20049;-78
2022/05/31 00:04:13;;;;;;;;;;;12.00;93.00;;;11.77;100.00;100147.59;4999337;28;20046;-77
2022/05/31 00:06:40;;;;;;;3.55;1.90;;;13.60;93.20;;;11.65;100.00;100134.84;5022707;28;19929;-78
2022/05/31 00:09:07;;;;;;;2.58;1.77;;;14.70;93.50;;;11.66;100.00;100141.81;5035956;28;20041;-78
2022/05/31 00:11:36;;;;;;;3.17;2.00;;;11.90;92.80;;;11.52;100.00;100135.22;5018943;28;20056;-78
2022/05/31 00:14:04;;;;;;;3.35;1.92;;;13.80;93.90;;;11.52;100.00;100143.13;4997091;28;20057;-78
2022/05/31 00:16:32;;;;;;;2.83;1.80;;;11.80;93.20;;;11.39;100.00;100133.88;5007501;28;20049;-77
2022/05/31 00:18:59;;;;;;;2.70;1.73;;;11.70;92.90;;;11.38;100.00;100140.91;5021621;28;20068;-76
2022/05/31 00:21:47;;;;;;;4.32;1.98;;;11.70;92.90;;;11.19;100.00;100138.00;5025917;28;20152;-78
2022/05/31 00:24:20;;;;;;;1.70;1.60;;;11.50;93.20;;;11.11;100.00;100138.22;5016416;28;20426;-77
2022/05/31 00:26:48;;;;;;;2.15;1.95;;;11.40;93.30;;;11.15;100.00;100141.59;5040149;28;20131;-77
2022/05/31 00:29:15;;;;;;;2.33;1.90;;;11.50;96.20;;;11.07;100.00;100133.94;5021509;28;21414;-77
2022/05/31 00:31:46;;;;;;;2.15;1.80;;;11.30;93.90;;;11.09;100.00;100150.56;5005300;28;20057;-78
2022/05/31 00:34:15;;;;;;;3.70;2.05;;;;;;;10.97;100.00;100143.88;5020507;28;21220;-78
2022/05/31 00:36:46;;;;;;;2.70;2.00;;;;;;;10.92;100.00;100145.78;4998656;28;21382;-79
2022/05/31 00:39:13;;;;;;;2.95;2.05;;;;;;;10.89;100.00;100144.09;5020855;28;20041;-78
2022/05/31 00:41:41;;;;;;;2.50;2.00;;;;;;;11.00;100.00;100151.69;5021843;28;20060;-78
2022/05/31 00:44:16;;;;;;;1.92;1.73;;;11.60;93.70;;;10.96;100.00;100151.84;5017576;28;20087;-79
2022/05/31 00:47:03;;;;;;;2.28;1.80;;;11.40;96.80;;;10.82;100.00;100152.22;5006210;28;20053;-78
2022/05/31 00:49:47;;;;;;;2.97;1.88;;;11.30;94.20;;;10.72;100.00;100155.13;5013411;28;20116;-77
2022/05/31 00:52:28;;;;;;;2.78;2.28;;;11.10;94.50;;;10.57;100.00;100159.03;5021574;28;20045;-78
2022/05/31 00:55:01;;;;;;;3.00;1.83;;;11.10;93.70;;;10.56;100.00;100159.09;5035216;28;20041;-77
2022/05/31 00:57:29;;;;;;;2.22;1.90;;;11.00;94.10;;;10.38;100.00;100153.41;5010736;28;20050;-77
2022/05/31 01:00:09;;;;;;;2.17;1.98;;;10.80;94.40;;;10.44;100.00;100157.63;5017434;28;20526;-78
2022/05/31 01:02:40;;;;;;;3.05;1.92;;;10.80;94.70;;;10.43;100.00;100156.78;5017997;28;20037;-78
2022/05/31 01:05:10;;;;;;;3.15;2.00;;;10.60;94.90;;;10.50;100.00;100149.59;5012396;28;20072;-77
2022/05/31 01:07:38;;;;;;;2.85;1.80;;;;;;;10.49;100.00;100153.97;4981909;28;20045;-78
2022/05/31 01:10:08;;;;;;;2.20;1.90;;;10.80;95.10;;;10.45;100.00;100152.34;5021666;28;20056;-78
2022/05/31 01:12:45;;;;;;;3.05;2.00;;;10.70;95.20;;;10.35;100.00;100149.06;5012902;28;20042;-78
2022/05/31 01:15:30;;;;;;;3.92;1.80;;;10.40;97.30;;;10.49;100.00;100151.34;5021322;28;20057;-76
2022/05/31 01:18:33;;;;;;;2.17;1.75;;;10.70;94.80;;;10.39;100.00;100147.22;4990789;28;20050;-77
2022/05/31 01:21:20;;;;;;;3.10;1.70;;;11.50;95.60;;;10.47;100.00;100153.16;5018644;28;20077;-78
2022/05/31 01:24:15;;;;;;;4.35;1.88;;;12.60;95.40;;;10.40;100.00;100151.59;5024309;28;20041;-77
2022/05/31 01:27:01;;;;;;;4.47;2.00;;;11.10;95.50;;;10.44;100.00;100153.25;5025445;28;20046;-78
2022/05/31 01:29:36;;;;;;;3.63;1.75;;;10.80;97.90;;;10.35;100.00;100143.81;5029620;28;20045;-77
2022/05/31 01:32:09;;;;;;;2.20;2.00;;;10.50;94.90;;;10.26;100.00;100157.19;5026874;28;20046;-77
2022/05/31 01:35:04;;;;;;;2.33;2.03;;;10.40;98.40;;;10.10;100.00;100158.50;5006395;28;20184;-77
2022/05/31 01:37:52;;;;;;;2.50;1.67;;;10.60;98.30;;;10.03;100.00;100155.16;5019270;28;20075;-78
2022/05/31 01:40:37;;;;;;;3.63;1.77;;;10.50;95.10;;;9.96;100.00;100156.22;5003915;28;20049;-77
2022/05/31 01:43:04;;;;;;;2.10;1.75;;;10.30;98.50;;;9.92;100.00;100156.31;5033815;28;20522;-78
2022/05/31 01:45:41;;;;;;;2.30;2.10;;;10.30;95.20;;;10.00;100.00;100157.88;5012456;28;20049;-77
2022/05/31 01:48:09;;;;;;;2.85;1.90;;;10.80;95.40;;;10.06;100.00;100163.84;4995295;28;20053;-78
2022/05/31 01:50:37;;;;;;;2.00;1.80;;;10.30;95.60;;;10.07;100.00;100155.03;5018084;28;20053;-78
2022/05/31 01:53:08;;;;;;;2.47;2.10;;;;;;;9.98;100.00;100159.66;5004128;28;20045;-78
2022/05/31 01:55:40;;;;;;;2.42;2.05;;;10.30;95.40;;;9.98;100.00;100143.91;5003141;28;20137;-77
2022/05/31 01:58:18;;;;;;;2.17;1.90;;;10.30;95.60;;;10.07;100.00;100157.66;5020366;28;20135;-78
2022/05/31 02:00:46;;;;;;;2.20;1.70;;;;;;;10.02;100.00;100156.94;5020701;28;20073;-77
2022/05/31 02:03:16;;;;;;;3.28;1.63;;;10.30;95.50;;;10.04;100.00;100152.50;5032571;28;20696;-77
2022/05/31 02:05:49;;;;;;;2.25;2.05;;;10.30;95.60;;;10.12;100.00;100162.81;5027278;28;20041;-77
2022/05/31 02:08:22;;;;;;;3.00;1.75;;;10.30;96.10;;;10.15;100.00;100151.38;4994458;28;20403;-77
2022/05/31 02:10:50;;;;;;;3.13;1.50;;;;;;;10.27;100.00;100147.56;5034229;28;20045;-76
2022/05/31 02:13:18;;;;;;;2.97;1.75;;;10.70;96.00;;;10.26;100.00;100154.56;5019139;28;20051;-77
2022/05/31 02:16:01;;;;;;;2.33;2.00;;;;;;;10.21;100.00;100152.03;5006626;28;20068;-78
2022/05/31 02:21:57;;;;;;;1.92;1.80;;;10.60;94.70;;;10.27;100.00;100151.03;5011400;28;20049;-77
2022/05/31 02:24:25;;;;;;;;;;;12.00;95.30;;;10.42;100.00;100146.28;5011804;28;20045;-77
2022/05/31 02:26:53;;;;;;;3.30;2.08;;;10.80;95.40;;;10.33;100.00;100144.75;5010255;28;19925;-76
2022/05/31 02:29:25;;;;;;;3.15;2.17;;;10.80;95.80;;;10.30;100.00;100139.56;5008755;28;20061;-78
2022/05/31 02:31:53;;;;;;;2.55;2.13;;;10.20;99.20;;;10.28;100.00;100136.97;5032676;28;20882;-77
2022/05/31 02:34:26;;;;;;;2.95;2.08;;;10.50;96.00;;;10.30;100.00;100145.72;5010694;28;20045;-79
2022/05/31 02:36:54;;;;;;;3.38;1.73;;;12.60;96.60;;;10.18;100.00;100138.13;5000835;28;20099;-79
2022/05/31 02:39:22;;;;;;;3.10;2.35;;;13.80;97.20;;;10.26;100.00;100137.94;5014570;28;20072;-78
2022/05/31 02:41:50;;;;;;;3.35;1.88;;;10.60;99.70;;;10.29;100.00;100135.22;5022355;28;20045;-79
2022/05/31 02:44:19;;;;;;;4.07;2.42;;;10.70;96.70;;;10.36;100.00;100128.88;5009022;28;20059;-78
2022/05/31 02:46:47;;;;;;;4.43;2.28;;;10.50;96.70;;;10.41;100.00;100134.94;5000607;28;20418;-79
2022/05/31 02:49:16;;;;;;;5.07;2.40;;;12.60;97.60;;;10.49;100.00;100134.72;5015220;28;20056;-80
2022/05/31 02:51:46;;;;;;;3.90;2.42;;;10.90;97.10;;;10.59;100.00;100127.44;5026094;28;20161;-79
2022/05/31 02:54:16;;;;;;;5.20;2.63;;;11.00;96.60;;;10.62;100.00;100122.97;4998931;28;20042;-79
2022/05/31 02:57:02;;;;;;;3.13;2.58;;;13.60;97.50;;;10.59;100.00;100124.81;5008607;28;20061;-80
2022/05/31 02:59:41;;;;;;;3.10;2.33;;;10.70;96.50;;;10.69;100.00;100107.81;5021951;28;20148;-79
2022/05/31 03:02:20;;;;;;;2.88;2.25;;;11.10;96.20;;;10.78;100.00;100112.00;5022393;28;21233;-79
2022/05/31 03:05:10;;;;;;;3.70;2.15;;;10.80;96.00;;;10.73;100.00;100116.50;5021639;28;20129;-80
2022/05/31 03:07:55;;;;;;;2.38;2.00;;;12.50;96.40;;;10.82;100.00;100118.88;5010279;28;20059;-78
2022/05/31 03:10:33;;;;;;;2.70;2.13;;;10.90;95.70;;;10.73;100.00;100109.50;5014925;28;20113;-78
2022/05/31 03:13:01;;;;;;;1.98;1.73;;;11.00;95.60;;;10.83;100.00;100117.09;5027431;28;20883;-78
2022/05/31 03:15:31;;;;;;;4.05;2.08;;;11.00;95.50;;;10.85;100.00;100115.28;5008600;28;20418;-78
2022/05/31 03:18:15;;;;;;;2.20;1.90;;;11.00;95.50;;;10.79;100.00;100105.81;5010144;28;20055;-79
2022/05/31 03:20:54;;;;;;;3.83;2.15;;;11.00;95.70;;;10.78;100.00;100115.47;5022496;28;20675;-78
2022/05/31 03:23:35;;;;;;;3.25;1.80;;;14.60;96.50;;;10.82;100.00;100107.47;5017782;28;20050;-79
2022/05/31 03:26:06;;;;;;;3.47;2.17;;;10.90;95.60;;;10.70;100.00;100106.06;5041795;28;20190;-80
2022/05/31 03:28:36;;;;;;;2.70;1.80;;;11.60;96.20;;;10.70;100.00;100096.44;5033800;28;20046;-80
2022/05/31 03:31:04;;;;;;;3.65;1.65;;;11.10;95.90;;;10.74;100.00;100107.69;5022900;28;20041;-79
2022/05/31 03:33:32;;;;;;;2.83;2.03;;;11.40;96.20;;;10.80;100.00;100110.19;5016072;28;20053;-80
2022/05/31 03:36:00;;;;;;;3.63;2.05;;;12.60;96.90;;;10.74;100.00;100113.84;5040927;28;20034;-79
2022/05/31 03:38:37;;;;;;;2.20;1.90;;;10.60;96.30;;;10.68;100.00;100108.75;5037917;28;20482;-79
2022/05/31 03:41:04;;;;;;;3.08;2.05;;;13.40;97.20;;;10.73;100.00;100111.25;5023687;28;20132;-79
2022/05/31 03:43:37;;;;;;;2.13;1.90;;;11.00;96.20;;;10.82;100.00;100107.47;5024735;28;20072;-79
2022/05/31 03:46:28;;;;;;;2.03;1.75;;;13.40;96.60;;;10.92;100.00;100106.31;5007726;28;20444;-80
2022/05/31 03:49:15;;;;;;;3.08;1.83;;;13.20;96.80;;;10.90;100.00;100102.88;5023667;28;20126;-80
2022/05/31 03:51:52;;;;;;;2.72;1.85;;;11.10;96.70;;;10.92;100.00;100112.41;5010128;28;20057;-79
2022/05/31 03:54:26;;;;;;;5.55;2.83;;;11.50;96.90;;;10.86;100.00;100117.88;5020844;28;20068;-80
2022/05/31 03:57:20;;;;;;;4.13;1.73;;;11.10;96.80;;;10.89;100.00;100106.41;5012243;28;20080;-79
2022/05/31 03:59:58;;;;;;;2.22;2.03;;;11.00;96.50;;;10.87;100.00;100110.88;5026641;28;20789;-79
2022/05/31 04:02:44;;;;;;;2.05;1.75;;;12.10;96.80;;;10.94;100.00;100109.75;5021510;28;20050;-79
2022/05/31 04:05:13;;;;;;;2.47;1.90;;;13.70;97.20;;;10.91;100.00;100105.44;5022024;28;20095;-79
2022/05/31 04:07:41;;;;;;;3.53;2.00;;;12.30;97.20;;;10.90;100.00;100110.75;5007975;28;20497;-79
2022/05/31 04:10:10;;;;;;;2.85;2.40;;;14.80;98.20;;;10.92;100.00;100114.22;5020082;28;20049;-79
2022/05/31 04:12:39;;;;;;;2.92;2.22;;;11.20;99.90;;;10.88;100.00;100108.16;5023952;28;20042;-77
2022/05/31 04:15:29;;;;;;;2.45;2.00;;;11.40;99.90;;;10.82;100.00;100107.47;5017537;28;20506;-77
2022/05/31 04:17:56;;;;;;;3.00;2.08;;;13.50;97.70;;;10.81;100.00;100100.50;4999044;28;20061;-79
2022/05/31 04:20:23;;;;;;;3.85;2.00;;;11.20;99.90;;;10.87;100.00;100100.34;5018665;28;20096;-78
2022/05/31 04:22:50;;;;;;;5.35;2.20;;;11.10;97.10;;;10.89;100.00;100103.78;5011173;28;20049;-78
2022/05/31 04:25:37;;;;;;;2.45;2.00;;;10.80;99.90;;;10.91;100.00;100094.06;5025310;28;20685;-77
2022/05/31 04:28:39;;;;;;;2.10;1.90;;;11.20;99.90;;;10.94;100.00;100093.97;5016802;28;20057;-77
2022/05/31 04:31:41;;;;;;;2.95;1.90;;;10.80;99.90;;;10.90;100.00;100089.72;5015933;28;20053;-76
2022/05/31 04:34:28;;;;;;;4.30;2.03;;;11.30;99.60;;;11.27;100.00;100082.47;5030694;28;20103;-77
2022/05/31 04:36:57;;;;;;;2.90;1.77;;;11.50;96.90;;;11.11;100.00;100089.97;5027307;28;20045;-75
2022/05/31 04:39:41;;;;;;;2.50;2.03;;;;;;;11.02;100.00;100096.38;5026900;28;20104;-76
2022/05/31 04:42:17;;;;;;;1.75;1.65;;;;;;;10.87;100.00;100102.97;5038581;28;20112;-79
2022/05/31 04:44:44;;;;;;;3.75;1.70;;;11.40;96.80;;;10.90;100.00;100095.81;5042100;28;20049;-78
2022/05/31 04:47:12;;;;;;;2.70;2.17;;;;;;;10.91;100.00;100092.28;5005204;28;20049;-78
2022/05/31 04:49:43;;;;;;;2.28;2.08;;;;;;;11.05;100.00;100083.97;5040191;28;20578;-79
2022/05/31 04:52:12;;;;;;;4.30;2.15;;;;;;;11.27;100.00;100085.09;5024515;28;20049;-78
2022/05/31 04:54:46;;;;;;;1.88;1.65;;;;;;;11.20;100.00;100094.94;5022082;28;20053;-79
2022/05/31 04:57:21;;;;;;;2.67;2.13;;;;;;;11.15;100.00;100086.31;5022060;28;20053;-79
2022/05/31 04:59:49;;;;;;;3.92;2.15;;;;;;;11.18;100.00;100092.34;5001562;28;20057;-80
2022/05/31 05:02:16;;;;;;;3.15;2.20;;;;;;;11.14;100.00;100096.00;5024351;28;21504;-79
2022/05/31 05:04:52;;;;;;;3.60;2.00;;;;;;;11.15;100.00;100084.56;4999408;28;20080;-78
2022/05/31 05:07:38;;;;;;;4.45;2.30;;;;;;;11.25;100.00;100076.38;5012583;28;20049;-79
2022/05/31 05:10:07;;;;;;;3.00;2.10;;;11.40;97.00;;;11.33;100.00;100080.50;5019739;28;20038;-79
2022/05/31 05:12:43;;;;;;;3.63;1.98;;;;;;;11.38;100.00;100063.66;5025437;28;20045;-79
2022/05/31 05:15:31;;;;;;;2.60;2.13;;;;;;;11.44;100.00;100080.16;5011277;28;20056;-79
2022/05/31 05:17:58;;;;;;;2.40;2.10;;;;;;;11.54;100.00;100077.19;5023618;28;20052;-79
2022/05/31 05:20:26;;;;;;;7.40;1.90;;;;;;;11.59;100.00;100076.13;5020739;28;20048;-78
2022/05/31 05:22:54;;;;;;;2.50;2.15;;;;;;;11.63;100.00;100076.91;5021193;28;20049;-79
2022/05/31 05:25:21;;;;;;;3.55;1.73;;;;;;;11.77;100.00;100082.56;5021905;28;20053;-79
2022/05/31 05:28:00;;;;;;;3.72;1.95;;;;;;;11.84;100.00;100083.22;5006491;28;20053;-79
2022/05/31 05:30:40;;;;;;;2.47;1.88;;;;;;;11.85;100.00;100084.94;5006045;28;20086;-80
2022/05/31 05:33:29;;;;;;;2.97;1.60;;;;;;;11.94;100.00;100089.03;5024898;28;20049;-79
2022/05/31 05:36:14;;;;;;;4.38;2.03;;;12.20;99.80;;;12.01;100.00;100092.34;5023373;28;20425;-79
2022/05/31 05:38:42;;;;;;;3.15;2.08;;;;;;;12.14;100.00;100088.41;5023851;28;20076;-80
2022/05/31 05:41:49;;;;;;;3.67;2.20;;;;;;;12.17;100.00;100087.41;5023604;28;20049;-79
2022/05/31 05:44:40;;;;;;;4.95;1.92;;;;;;;12.24;100.00;100080.13;5027192;28;20053;-79
2022/05/31 05:47:14;;;;;;;7.20;2.10;;;12.30;95.60;;;12.27;100.00;100074.78;5005671;28;20399;-79
2022/05/31 05:49:44;;;;;;;2.85;1.20;;;;;;;12.93;100.00;100076.75;5008477;28;20057;-76
2022/05/31 05:52:40;;;;;;;2.65;1.70;;;;;;;13.05;100.00;100070.13;5017176;28;20132;-79
2022/05/31 05:55:26;;;;;;;3.10;1.70;;;;;;;12.90;100.00;100069.78;5027695;28;20119;-79
2022/05/31 05:58:12;;;;;;;2.47;1.80;;;;;;;12.86;100.00;100070.84;5020199;28;20064;-77
2022/05/31 06:00:58;;;;;;;4.15;1.80;;;12.90;94.70;;;12.92;100.00;100075.03;5021715;28;20068;-78
2022/05/31 06:03:51;;;;;;;3.00;1.83;;;13.10;95.40;;;12.98;100.00;100064.22;5008096;28;20046;-80
2022/05/31 06:06:21;;;;;;;3.78;1.50;;;;;;;13.07;100.00;100078.00;5022493;28;20045;-78
2022/05/31 06:09:04;;;;;;;3.38;1.67;;;13.50;95.10;;;13.14;100.00;100079.47;5024259;28;20038;-78
2022/05/31 06:11:49;;;;;;;2.05;1.38;;;13.20;94.50;;;13.27;100.00;100087.78;5022327;28;20464;-78
2022/05/31 06:14:21;;;;;;;2.55;1.42;;;13.20;94.30;;;13.32;100.00;100078.72;5026547;28;20069;-78
2022/05/31 06:16:53;;;;;;;2.38;1.60;;;13.30;94.10;;;13.38;100.00;100084.69;5009482;28;20048;-78
2022/05/31 06:19:31;;;;;;;3.78;2.00;;;13.60;95.30;;;13.53;100.00;100085.88;5000121;28;20046;-78
2022/05/31 06:21:59;;;;;;;2.90;1.65;;;13.60;94.00;;;13.63;100.00;100094.28;5028278;28;20046;-78
2022/05/31 06:24:46;;;;;;;2.92;1.83;;;13.60;93.90;;;13.78;100.00;100095.44;5024792;28;20158;-78
2022/05/31 06:27:36;;;;;;;3.55;1.80;;;13.70;94.00;;;13.93;100.00;100093.94;5026661;28;20057;-79
2022/05/31 06:30:05;;;;;;;2.78;2.35;;;13.70;97.40;;;14.06;100.00;100102.22;5025918;28;20506;-79
2022/05/31 06:32:32;;;;;;;2.25;1.65;;;13.90;94.20;;;14.21;100.00;100093.63;5043946;28;20052;-78
2022/05/31 06:34:59;;;;;;;2.97;1.80;;;14.00;94.10;;;14.30;100.00;100093.19;5027047;28;20489;-78
2022/05/31 06:37:35;;;;;;;2.10;1.48;;;14.10;93.70;;;14.45;100.00;100099.63;5025990;28;20111;-77
2022/05/31 06:40:07;;;;;;;4.38;1.50;;;14.30;93.70;;;14.54;100.00;100101.00;5017151;28;20061;-77
2022/05/31 06:43:04;;;;;;;2.25;1.85;;;14.40;93.60;;;14.69;99.04;100085.34;4974673;28;20076;-77
2022/05/31 06:45:50;;;;;;;3.17;1.65;;;14.50;93.20;;;14.78;98.90;100089.38;5038817;28;20517;-77
2022/05/31 06:48:37;;;;;;;2.83;1.40;;;14.90;93.10;;;14.87;96.77;100087.16;5023067;28;20137;-77
2022/05/31 06:57:58;;;;;;;1.88;1.17;;;15.50;92.80;;;15.29;94.58;100084.31;5027020;28;20198;-77
2022/05/31 07:00:32;;;;;;;3.20;1.63;;;15.10;92.60;;;15.43;93.02;100084.53;5028429;28;20104;-78
2022/05/31 07:02:59;;;;;;;3.40;1.50;;;15.20;92.40;;;15.42;94.96;100072.19;5044095;28;20061;-77
2022/05/31 07:05:33;;;;;;;3.22;1.48;;;15.30;92.50;;;15.56;89.37;100081.28;5012444;28;20045;-77
2022/05/31 07:08:06;;;;;;;2.63;1.90;;;15.70;92.10;;;15.67;89.68;100078.06;5026354;28;20107;-78
2022/05/31 07:10:52;;;;;;;1.75;1.45;;;15.60;92.00;;;15.79;87.31;100074.81;5026077;28;21026;-78
2022/05/31 07:13:37;;;;;;;2.63;1.58;;;15.90;91.80;;;15.89;85.81;100075.22;5027811;28;20063;-78
2022/05/31 07:16:34;;;;;;;2.30;1.50;;;15.80;91.60;;;15.93;82.62;100079.47;5021753;28;20053;-77
2022/05/31 07:19:28;;;;;;;1.75;1.35;;;16.30;91.30;;;16.00;83.76;100085.28;5027281;28;20045;-77
2022/05/31 07:22:16;;;;;;;2.67;1.58;;;16.00;91.10;;;16.06;83.44;100092.97;5016600;28;20044;-78
2022/05/31 07:24:45;;;;;;;2.27;1.73;;;16.00;91.00;;;16.16;84.31;100090.69;5021054;28;20037;-79
2022/05/31 07:27:22;;;;;;;3.67;1.92;;;16.50;91.20;;;16.14;82.49;100080.13;5024000;28;20307;-77
2022/05/31 07:29:55;;;;;;;5.72;1.83;;;16.10;90.80;;;16.24;81.88;100077.88;5007728;28;20050;-78
2022/05/31 07:32:22;;;;;;;3.50;1.63;;;16.10;90.80;;;16.27;81.57;100074.19;5015129;28;20041;-78
2022/05/31 07:35:09;;;;;;;3.28;1.52;;;16.20;90.70;;;16.34;85.28;100067.63;5009107;28;20410;-78
2022/05/31 07:37:37;;;;;;;3.05;1.60;;;16.10;91.00;;;16.39;80.30;100073.53;5038617;28;20087;-79
2022/05/31 07:40:05;;;;;;;3.28;1.42;;;16.30;90.60;;;16.47;81.12;100073.13;5034510;28;20057;-78
2022/05/31 07:42:33;;;;;;;2.30;1.60;;;16.40;90.60;;;16.55;81.95;100067.41;5009966;28;20050;-78
2022/05/31 07:45:02;;;;;;;8.00;2.20;;;16.20;93.60;;;16.61;81.57;100072.38;5023704;28;21321;-79
2022/05/31 07:47:30;;;;;;;4.57;1.55;;;16.40;90.70;;;16.66;82.10;100070.34;5023579;28;20577;-78
2022/05/31 07:49:58;;;;;;;2.58;1.88;;;;;;;16.67;79.18;100077.38;5020892;28;20096;-78
2022/05/31 07:52:54;;;;;;;2.78;1.55;;;;;;;16.73;78.57;100073.53;5018502;28;20057;-79
2022/05/31 07:56:00;;;;;;;1.70;1.38;;;15.60;89.20;;;16.84;79.49;100079.09;5008625;28;20053;-78
2022/05/31 07:58:59;;;;;;;2.13;1.55;;;16.70;90.20;;;16.85;79.81;100069.34;5025692;28;20601;-79
2022/05/31 08:01:44;;;;;;;3.35;1.58;;;16.80;90.20;;;16.89;75.18;100075.34;5018474;28;20061;-78
2022/05/31 08:04:30;;;;;;;2.22;1.42;;;16.80;89.60;;;16.90;72.93;100079.72;4997287;28;20050;-78
2022/05/31 08:06:59;;;;;;;2.30;1.60;;;16.80;88.80;;;16.90;74.29;100082.38;5037041;28;20107;-78
2022/05/31 08:09:27;;;;;;;3.17;1.90;;;16.80;89.00;;;16.99;76.25;100069.47;5023133;28;20047;-78
2022/05/31 08:11:54;;;;;;;2.67;1.58;;;16.90;89.50;;;16.98;77.06;100064.19;5021090;28;20072;-79
2022/05/31 08:14:24;;;;;;;3.17;1.48;;;16.90;89.90;;;17.11;77.19;100065.25;5008366;28;20045;-78
2022/05/31 08:16:52;;;;;;;2.67;1.63;;;17.00;90.00;;;17.11;74.69;100067.06;5037596;28;20041;-78
2022/05/31 08:19:22;;;;;;;3.45;1.33;;;17.00;89.00;;;17.14;73.57;100066.91;5041853;28;20662;-78
2022/05/31 08:21:49;;;;;;;2.38;1.55;;;17.00;88.80;;;17.23;70.82;100081.47;5024512;28;20822;-78
2022/05/31 08:24:16;;;;;;;2.03;1.35;;;17.90;88.60;;;17.27;69.93;100075.03;5024652;28;20133;-79
2022/05/31 08:27:03;;;;;;;2.13;1.58;;;17.10;87.80;;;17.28;69.79;100082.06;5022544;28;20160;-79
2022/05/31 08:29:30;;;;;;;2.15;1.40;;;17.20;87.50;;;17.47;70.15;100073.88;5022891;28;20064;-79
2022/05/31 08:32:01;;;;;;;2.25;1.40;;;17.30;87.80;;;17.60;68.76;100075.84;5025038;28;20037;-77
2022/05/31 08:34:29;;;;;;;;;;;17.50;87.60;;;17.78;69.17;100071.22;5008714;28;20034;-75
2022/05/31 08:36:56;;;;;;;1.95;1.58;;;17.50;87.50;;;17.95;67.86;100073.78;5010146;28;19929;-77
2022/05/31 08:39:24;;;;;;;2.20;1.50;;;17.70;87.40;;;17.91;62.71;100076.69;5016517;28;20055;-77
2022/05/31 08:42:06;;;;;;;1.67;1.40;;;17.80;85.30;;;17.95;60.45;100070.25;5024491;28;20053;-78
2022/05/31 08:44:52;;;;;;;3.20;1.63;;;17.80;84.10;;;17.87;59.68;100073.34;5016542;28;20124;-78
2022/05/31 08:47:44;;;;;;;3.97;1.92;;;17.90;83.60;;;17.86;60.91;100071.66;5025266;28;20104;-77
2022/05/31 08:53:30;;;;;;;3.03;1.55;;;17.80;84.10;;;17.95;61.79;100072.91;5017317;28;20095;-77
2022/05/31 08:59:23;;;;;;;2.83;1.50;;;17.70;89.60;;;17.97;61.22;100081.66;5012168;28;20053;-78
2022/05/31 09:01:57;;;;;;;4.00;1.40;;;18.10;90.10;;;18.20;61.82;100072.31;5024759;28;20113;-77
2022/05/31 09:04:38;;;;;;;3.10;1.50;;;17.90;89.80;;;18.39;60.27;100069.38;5024024;28;20049;-77
2022/05/31 09:07:20;;;;;;;2.75;1.30;;;18.30;88.50;;;18.21;56.86;100070.50;5024759;28;20053;-77
2022/05/31 09:10:07;;;;;;;3.23;1.37;;;18.30;87.10;;;18.30;55.28;100064.59;5022563;28;20055;-78
2022/05/31 09:13:13;;;;;;;2.28;1.48;;;18.00;85.80;;;18.49;55.10;100075.00;5023700;28;21074;-76
2022/05/31 09:15:49;;;;;;;2.20;1.73;;;18.30;86.10;;;18.68;54.04;100066.72;5022932;28;20104;-79
2022/05/31 09:18:39;;;;;;;2.50;1.58;;;18.60;79.90;;;19.03;53.56;100056.59;5022155;28;20072;-77
2022/05/31 09:21:34;;;;;;;5.88;1.60;;;18.60;86.30;;;19.18;52.75;100065.41;4991945;28;20053;-77
2022/05/31 09:24:02;;;;;;;3.10;1.63;;;18.80;80.10;;;19.32;52.86;100059.19;5016795;28;20058;-76
2022/05/31 09:26:58;;;;;;;1.20;1.10;;;19.00;79.60;;;19.60;52.61;100066.19;5032654;28;20049;-76
2022/05/31 09:29:58;;;;;;;2.22;1.42;;;19.30;85.70;;;19.68;51.36;100058.53;5012792;28;20053;-76
2022/05/31 09:33:06;;;;;;;1.73;1.30;;;20.00;78.90;;;19.86;51.28;100057.38;5012237;28;20136;-75
2022/05/31 09:35:55;;;;;;;1.70;1.30;;;19.60;83.20;;;19.73;49.54;100060.03;5007540;28;20059;-76
2022/05/31 09:38:59;;;;;;;3.72;1.15;;;19.40;82.60;;;19.87;48.65;100067.09;5018287;28;20053;-76
2022/05/31 09:41:43;;;;;;;3.38;1.70;;;;;;;19.90;48.60;100056.22;5016292;28;20052;-76
2022/05/31 09:44:23;;;;;;;2.63;1.42;;;20.00;78.70;;;19.90;44.81;100049.06;5031738;28;20228;-76
2022/05/31 09:47:15;;;;;;;;;;;19.70;71.40;;;19.67;45.52;100051.50;5016757;28;20037;-76
2022/05/31 09:49:49;;;;;;;2.38;1.35;;;19.60;68.70;;;19.61;42.37;100056.41;5011583;28;19952;-76
2022/05/31 09:52:22;;;;;;;2.45;1.23;;;19.60;66.60;;;19.64;41.11;100048.16;5013127;28;20041;-77
2022/05/31 09:58:08;;;;;;;4.35;1.90;;;19.40;71.40;;;19.48;40.98;100051.88;5017878;28;20046;-77
2022/05/31 10:01:06;;;;;;;2.53;1.70;;;19.50;65.70;;;19.46;42.94;100053.78;5025477;28;20207;-76
2022/05/31 10:03:54;;;;;;;4.10;1.30;;;19.50;66.50;;;19.73;43.07;100047.53;5018721;28;20084;-76
2022/05/31 10:06:28;;;;;;;1.83;1.20;;;20.00;73.40;;;19.78;42.30;100047.22;5015694;28;20050;-77
2022/05/31 10:08:56;;;;;;;3.47;1.73;;;;;;;19.64;42.72;100037.50;5007333;28;20443;-77
2022/05/31 10:11:43;;;;;;;3.38;1.52;;;19.50;73.10;;;19.89;43.14;100042.03;5024063;28;20041;-77
2022/05/31 10:14:30;;;;;;;2.55;1.40;;;19.70;66.30;;;19.90;43.42;100035.72;5017921;28;20584;-77
2022/05/31 10:17:44;;;;;;;4.43;1.92;;;19.80;73.90;;;20.01;43.12;100037.69;4993166;28;20052;-77
2022/05/31 10:20:25;;;;;;;2.17;1.58;;;19.80;71.80;;;20.24;41.88;100033.41;5014812;28;20127;-76
2022/05/31 10:22:53;;;;;;;3.45;1.50;;;;;;;20.23;43.02;100033.53;5013889;28;20126;-75
2022/05/31 10:25:49;;;;;;;3.67;1.50;;;20.00;72.10;;;20.17;42.50;100028.59;5016445;28;20056;-75
2022/05/31 10:28:43;;;;;;;4.03;1.60;;;20.10;65.20;;;20.33;42.05;100029.22;5018224;28;20053;-75
2022/05/31 10:31:38;;;;;;;2.58;1.70;;;20.20;70.30;;;20.39;41.79;100030.63;5018752;28;20455;-75
2022/05/31 10:34:36;;;;;;;2.72;1.40;;;20.10;64.30;;;20.40;41.68;100027.84;5017953;28;20073;-76
2022/05/31 10:37:06;;;;;;;3.55;1.45;;;20.50;67.80;;;20.51;41.68;100026.22;5035953;28;20038;-78
2022/05/31 10:39:38;;;;;;;5.72;1.50;;;20.40;64.70;;;20.91;42.19;100023.38;5007780;28;20057;-77
2022/05/31 10:42:14;;;;;;;2.17;1.70;;;20.50;69.20;;;20.73;39.91;100024.69;5012327;28;21275;-74
2022/05/31 10:44:51;;;;;;;2.60;1.70;;;20.60;68.00;;;20.89;39.06;100022.63;5031162;28;20045;-74
2022/05/31 10:47:21;;;;;;;1.95;1.30;;;20.60;69.10;;;20.88;40.44;100015.59;5017410;28;20124;-74
2022/05/31 10:49:50;;;;;;;2.88;1.27;;;20.70;63.90;;;21.08;42.34;100016.78;5032666;28;20042;-74
2022/05/31 10:52:35;;;;;;;3.63;1.50;;;20.80;69.50;;;21.19;40.97;100013.31;5016112;28;20052;-74
2022/05/31 10:55:21;;;;;;;4.90;1.50;;;20.60;69.10;;;21.39;40.22;100017.19;5016566;28;20490;-74
2022/05/31 10:58:18;;;;;;;2.30;1.20;;;21.10;61.80;;;21.41;39.97;100022.41;5017485;28;20041;-74
2022/05/31 11:01:18;;;;;;;1.95;1.30;;;21.30;61.60;;;21.53;40.14;100020.59;4996161;28;20144;-74
2022/05/31 11:04:21;;;;;;;3.78;1.27;;;21.40;61.90;;;21.77;39.39;100019.75;5009161;28;20049;-74
2022/05/31 11:07:40;;;;;;;3.08;1.50;;;21.60;57.20;;;21.92;35.34;100015.88;5018757;28;20050;-74
2022/05/31 11:14:07;;;;;;;2.22;1.50;;;21.90;61.80;;;22.23;36.15;100008.13;5020562;28;20104;-74
2022/05/31 11:17:06;;;;;;;2.70;1.83;;;23.20;56.90;;;22.32;35.18;99998.50;5018780;28;20155;-74
2022/05/31 11:20:10;;;;;;;3.50;1.40;;;22.20;56.00;;;22.72;34.89;99997.16;5020917;28;20152;-73
2022/05/31 11:23:29;;;;;;;2.33;1.33;;;22.40;61.70;;;22.85;33.96;100017.63;5019347;28;20304;-75
2022/05/31 11:26:14;;;;;;;3.67;1.50;;;22.60;53.10;;;22.86;33.18;100009.44;5020237;28;20418;-75
2022/05/31 11:29:14;;;;;;;3.03;1.17;;;22.70;54.10;;;23.14;34.14;100000.94;5020235;28;20042;-75
2022/05/31 11:32:13;;;;;;;4.80;1.67;;;22.80;52.60;;;23.43;32.75;100009.28;5011378;28;21421;-75